createdAt,value
2023-02-09T00:01:42.956Z,92.50
2023-02-09T00:04:29.887Z,92.98
2023-02-09T00:07:21.741Z,92.66
2023-02-09T00:10:09.080Z,92.46
2023-02-09T00:13:14.692Z,92.33
2023-02-09T00:16:02.697Z,92.65
2023-02-09T00:18:49.112Z,92.48
2023-02-09T00:21:36.006Z,92.28
2023-02-09T00:24:23.027Z,92.41
2023-02-09T00:27:10.136Z,92.77
2023-02-09T00:29:58.353Z,93.04
2023-02-09T00:32:45.200Z,92.79
2023-02-09T00:35:31.967Z,93.72
2023-02-09T00:38:18.766Z,93.15
2023-02-09T00:41:07.157Z,93.51
2023-02-09T00:43:53.844Z,93.23
2023-02-09T00:46:42.350Z,92.53
2023-02-09T00:49:29.526Z,92.32
2023-02-09T00:52:16.358Z,92.52
2023-02-09T00:55:03.367Z,92.93
2023-02-09T00:57:49.910Z,92.60
2023-02-09T01:00:36.707Z,92.52
2023-02-09T01:03:24.875Z,93.20
2023-02-09T01:06:12.636Z,93.02
2023-02-09T01:08:59.878Z,94.14
2023-02-09T01:11:46.591Z,93.64
2023-02-09T01:14:33.358Z,92.94
2023-02-09T01:17:20.371Z,93.07
2023-02-09T01:20:10.318Z,92.95
2023-02-09T01:22:57.620Z,93.78
2023-02-09T01:25:44.540Z,93.82
2023-02-09T01:28:31.049Z,93.65
2023-02-09T01:31:21.608Z,93.94
2023-02-09T01:34:13.269Z,94.80
2023-02-09T01:37:01.030Z,94.34
2023-02-09T01:39:47.926Z,94.41
2023-02-09T01:42:34.732Z,94.87
2023-02-09T01:45:29.852Z,94.68
2023-02-09T01:48:19.224Z,93.95
2023-02-09T01:51:06.276Z,94.28
2023-02-09T01:53:54.339Z,94.91
2023-02-09T01:56:46.517Z,93.95
2023-02-09T01:59:35.823Z,94.46
2023-02-09T02:02:23.593Z,94.88
2023-02-09T02:05:11.356Z,94.55
2023-02-09T02:08:03.072Z,94.01
2023-02-09T02:10:52.213Z,94.15
2023-02-09T02:13:38.773Z,93.73
2023-02-09T02:16:46.343Z,94.63
2023-02-09T02:20:17.767Z,95.28
2023-02-09T02:23:18.199Z,95.19
2023-02-09T02:26:46.805Z,95.71
2023-02-09T02:30:10.866Z,95.57
2023-02-09T02:33:12.811Z,95.63
2023-02-09T02:36:06.854Z,95.22
2023-02-09T02:38:58.329Z,95.28
2023-02-09T02:42:10.539Z,95.36
2023-02-09T02:45:04.273Z,95.81
2023-02-09T02:47:58.562Z,95.85
2023-02-09T02:50:53.758Z,95.85
2023-02-09T02:53:44.915Z,94.62
2023-02-09T02:56:35.592Z,95.69
2023-02-09T02:59:28.775Z,96.23
2023-02-09T03:02:20.158Z,95.97
2023-02-09T03:05:08.374Z,94.83
2023-02-09T03:07:56.638Z,94.55
2023-02-09T03:10:43.879Z,93.97
2023-02-09T03:13:41.970Z,94.97
2023-02-09T03:16:34.999Z,94.62
2023-02-09T03:19:31.481Z,94.75
2023-02-09T03:22:27.307Z,96.06
2023-02-09T03:25:19.508Z,95.72
2023-02-09T03:28:09.725Z,96.12
2023-02-09T03:30:58.685Z,95.27
2023-02-09T03:33:45.808Z,95.25
2023-02-09T03:36:34.877Z,95.88
2023-02-09T03:39:21.388Z,96.56
2023-02-09T03:42:09.798Z,96.35
2023-02-09T03:44:56.681Z,96.08
2023-02-09T03:47:43.197Z,96.38
2023-02-09T03:50:30.600Z,96.28
2023-02-09T03:53:17.057Z,96.78
2023-02-09T03:56:04.620Z,96.68
2023-02-09T03:58:53.007Z,97.55
2023-02-09T04:01:40.302Z,97.13
2023-02-09T04:04:27.450Z,97.52
2023-02-09T04:07:14.023Z,98.02
2023-02-09T04:10:00.853Z,97.69
2023-02-09T04:12:48.301Z,97.83
2023-02-09T04:15:36.673Z,98.96
2023-02-09T04:18:23.305Z,98.54
2023-02-09T04:21:10.007Z,97.95
2023-02-09T04:23:56.929Z,98.33
2023-02-09T04:26:43.761Z,97.70
2023-02-09T04:29:30.623Z,97.83
2023-02-09T04:32:18.932Z,97.60
2023-02-09T04:35:05.924Z,97.24
2023-02-09T04:37:52.524Z,97.66
2023-02-09T04:40:39.374Z,98.18
2023-02-09T04:43:26.292Z,98.02
2023-02-09T04:46:14.301Z,97.66
2023-02-09T04:49:02.318Z,97.91
2023-02-09T04:51:49.221Z,97.64
2023-02-09T04:54:35.952Z,97.13
2023-02-09T04:57:40.087Z,98.77
2023-02-09T05:00:27.112Z,97.83
2023-02-09T05:03:14.570Z,98.34
2023-02-09T05:06:07.021Z,98.61
2023-02-09T05:08:53.704Z,98.31
2023-02-09T05:11:40.318Z,98.25
2023-02-09T05:14:27.376Z,97.52
2023-02-09T05:17:14.643Z,97.20
2023-02-09T05:20:01.273Z,97.16
2023-02-09T05:22:50.267Z,97.48
2023-02-09T05:25:37.106Z,97.65
2023-02-09T05:28:23.954Z,97.88
2023-02-09T05:31:10.605Z,97.30
2023-02-09T05:33:57.425Z,96.40
2023-02-09T05:36:44.232Z,96.78
2023-02-09T05:39:32.523Z,96.88
2023-02-09T05:42:19.412Z,96.19
2023-02-09T05:45:06.825Z,95.34
2023-02-09T05:47:53.612Z,95.50
2023-02-09T05:50:40.521Z,94.38
2023-02-09T05:53:27.103Z,95.04
2023-02-09T05:56:15.213Z,95.55
2023-02-09T05:59:04.313Z,95.39
2023-02-09T06:01:52.003Z,96.09
2023-02-09T06:04:38.437Z,96.73
2023-02-09T06:07:25.202Z,95.92
2023-02-09T06:10:12.048Z,95.21
2023-02-09T06:13:00.115Z,96.24
2023-02-09T06:15:46.827Z,95.98
2023-02-09T06:18:33.726Z,95.95
2023-02-09T06:21:20.920Z,96.10
2023-02-09T06:24:07.690Z,95.22
2023-02-09T06:26:56.277Z,96.12
2023-02-09T06:29:44.338Z,95.96
2023-02-09T06:32:31.190Z,96.55
2023-02-09T06:35:18.064Z,96.52
2023-02-09T06:38:04.985Z,96.16
2023-02-09T06:40:52.172Z,97.34
2023-02-09T06:43:39.124Z,96.79
2023-02-09T06:46:27.168Z,96.81
2023-02-09T06:49:13.834Z,96.73
2023-02-09T06:52:00.434Z,97.30
2023-02-09T06:54:47.330Z,95.74
2023-02-09T06:57:34.911Z,95.39
2023-02-09T07:00:22.241Z,95.89
2023-02-09T07:03:11.190Z,95.62
2023-02-09T07:06:03.294Z,94.99
2023-02-09T07:08:50.916Z,95.09
2023-02-09T07:11:37.368Z,95.24
2023-02-09T07:14:24.050Z,95.42
2023-02-09T07:17:10.764Z,94.75
2023-02-09T07:19:59.228Z,94.34
2023-02-09T07:22:45.698Z,94.23
2023-02-09T07:25:32.478Z,93.83
2023-02-09T07:28:21.353Z,93.03
2023-02-09T07:31:10.622Z,92.78
2023-02-09T07:33:57.545Z,92.03
2023-02-09T07:36:47.884Z,92.43
2023-02-09T07:39:34.737Z,91.27
2023-02-09T07:42:23.296Z,90.92
2023-02-09T07:45:17.044Z,90.04
2023-02-09T07:48:03.581Z,89.46
2023-02-09T07:50:50.588Z,88.70
2023-02-09T07:53:38.601Z,90.41
2023-02-09T07:56:26.365Z,88.75
2023-02-09T07:59:13.019Z,88.01
2023-02-09T08:01:59.942Z,88.00
2023-02-09T08:04:46.937Z,87.71
2023-02-09T08:07:33.589Z,87.33
2023-02-09T08:10:21.788Z,87.07
2023-02-09T08:13:08.709Z,88.30
2023-02-09T08:15:59.476Z,86.79
2023-02-09T08:18:51.488Z,86.09
2023-02-09T08:21:41.084Z,87.23
2023-02-09T08:24:27.609Z,86.17
2023-02-09T08:27:15.761Z,86.57
2023-02-09T08:30:03.987Z,84.88
2023-02-09T08:32:50.807Z,84.50
2023-02-09T08:35:37.554Z,83.47
2023-02-09T08:38:24.456Z,82.30
2023-02-09T08:41:15.073Z,82.75
2023-02-09T08:44:04.051Z,82.88
2023-02-09T08:46:50.737Z,82.66
2023-02-09T08:49:37.790Z,82.85
2023-02-09T08:52:24.424Z,81.25
2023-02-09T08:55:11.461Z,81.05
2023-02-09T08:57:58.010Z,80.26
2023-02-09T09:00:46.188Z,80.34
2023-02-09T09:03:33.317Z,80.20
2023-02-09T09:06:19.787Z,80.46
2023-02-09T09:09:06.583Z,78.51
2023-02-09T09:11:53.330Z,79.09
2023-02-09T09:14:40.650Z,79.27
2023-02-09T09:17:30.165Z,78.50
2023-02-09T09:20:17.061Z,77.27
2023-02-09T09:23:03.675Z,77.07
2023-02-09T09:25:50.419Z,77.36
2023-02-09T09:28:37.456Z,77.16
2023-02-09T09:31:23.962Z,76.34
2023-02-09T09:34:12.144Z,77.28
2023-02-09T09:36:58.984Z,75.34
2023-02-09T09:39:45.666Z,75.47
2023-02-09T09:42:37.252Z,75.44
2023-02-09T09:45:26.809Z,75.11
2023-02-09T09:48:23.904Z,74.00
2023-02-09T09:51:16.984Z,73.94
2023-02-09T09:54:06.551Z,73.99
2023-02-09T09:56:55.533Z,73.12
2023-02-09T09:59:43.395Z,74.72
2023-02-09T10:02:32.633Z,74.08
2023-02-09T10:05:21.247Z,72.64
2023-02-09T10:08:16.366Z,69.96
2023-02-09T10:11:06.812Z,71.66
2023-02-09T10:13:55.347Z,71.30
2023-02-09T10:16:44.688Z,69.55
2023-02-09T10:19:32.766Z,70.29
2023-02-09T10:22:21.951Z,70.69
2023-02-09T10:25:40.240Z,68.78
2023-02-09T10:28:29.050Z,69.96
2023-02-09T10:31:23.561Z,69.20
2023-02-09T10:34:16.552Z,68.23
2023-02-09T10:37:20.891Z,67.58
2023-02-09T10:40:15.276Z,67.73
2023-02-09T10:43:05.473Z,68.78
2023-02-09T10:45:58.770Z,68.63
2023-02-09T10:48:47.334Z,66.29
2023-02-09T10:51:35.168Z,65.03
2023-02-09T10:54:22.495Z,64.58
2023-02-09T10:57:23.104Z,60.11
2023-02-09T11:00:44.370Z,58.38
2023-02-09T11:03:31.401Z,59.33
2023-02-09T11:06:20.909Z,59.39
2023-02-09T11:09:12.717Z,57.51
2023-02-09T11:12:00.208Z,59.20
2023-02-09T11:14:47.180Z,59.23
2023-02-09T11:17:42.366Z,59.51
2023-02-09T11:20:35.794Z,57.61
2023-02-09T11:23:38.518Z,58.27
2023-02-09T11:26:37.028Z,57.48
2023-02-09T11:29:30.949Z,58.02
2023-02-09T11:32:21.537Z,59.23
2023-02-09T11:35:12.944Z,57.87
2023-02-09T11:38:04.063Z,58.86
2023-02-09T11:40:55.020Z,60.47
2023-02-09T11:43:44.407Z,59.27
2023-02-09T11:46:34.800Z,60.43
2023-02-09T11:49:29.176Z,59.62
2023-02-09T11:52:30.352Z,58.39
2023-02-09T11:55:27.675Z,58.93
2023-02-09T11:58:38.871Z,58.00
2023-02-09T12:01:44.013Z,58.35
2023-02-09T12:04:44.031Z,58.53
2023-02-09T12:07:42.749Z,58.71
2023-02-09T12:10:39.449Z,57.81
2023-02-09T12:13:39.513Z,56.54
2023-02-09T12:16:31.318Z,57.97
2023-02-09T12:19:30.548Z,56.13
2023-02-09T12:22:53.365Z,57.41
2023-02-09T12:26:02.323Z,55.39
2023-02-09T12:28:56.001Z,57.55
2023-02-09T12:32:26.282Z,54.68
2023-02-09T12:35:29.372Z,54.81
2023-02-09T12:38:21.174Z,55.23
2023-02-09T12:41:13.081Z,54.05
2023-02-09T12:44:40.380Z,54.10
2023-02-09T12:47:49.553Z,53.85
2023-02-09T12:50:54.721Z,55.44
2023-02-09T12:53:50.532Z,54.15
2023-02-09T12:56:39.943Z,55.59
2023-02-09T12:59:27.552Z,54.14
2023-02-09T13:02:24.124Z,53.54
2023-02-09T13:05:15.042Z,52.14
2023-02-09T13:08:15.985Z,52.91
2023-02-09T13:11:23.508Z,52.99
2023-02-09T13:14:17.053Z,54.48
2023-02-09T13:17:37.257Z,53.77
2023-02-09T13:20:47.042Z,52.84
2023-02-09T13:23:37.284Z,53.82
2023-02-09T13:26:28.005Z,52.68
2023-02-09T13:29:21.258Z,52.67
2023-02-09T13:32:27.763Z,53.09
2023-02-09T13:35:24.932Z,53.15
2023-02-09T13:38:17.244Z,54.62
2023-02-09T13:41:07.148Z,53.59
2023-02-09T13:43:55.170Z,53.77
2023-02-09T13:46:41.933Z,51.18
2023-02-09T13:49:30.807Z,51.51
2023-02-09T13:52:20.494Z,52.87
2023-02-09T13:55:12.972Z,52.37
2023-02-09T13:58:01.962Z,51.63
2023-02-09T14:00:52.628Z,50.94
2023-02-09T14:03:57.450Z,53.50
2023-02-09T14:06:50.419Z,55.21
2023-02-09T14:09:47.721Z,53.70
2023-02-09T14:12:56.824Z,52.69
2023-02-09T14:16:06.273Z,52.93
2023-02-09T14:18:55.726Z,53.66
2023-02-09T14:21:46.604Z,54.02
2023-02-09T14:24:43.611Z,52.75
2023-02-09T14:27:33.047Z,54.13
2023-02-09T14:30:22.104Z,55.43
2023-02-09T14:33:24.818Z,54.48
2023-02-09T14:36:24.638Z,55.90
2023-02-09T14:39:14.055Z,55.12
2023-02-09T14:42:18.106Z,54.48
2023-02-09T14:45:30.427Z,53.83
2023-02-09T14:48:21.864Z,54.47
2023-02-09T14:51:15.191Z,54.49
2023-02-09T14:54:02.899Z,54.68
2023-02-09T14:56:49.856Z,55.02
2023-02-09T14:59:36.395Z,55.56
2023-02-09T15:02:27.083Z,55.45
2023-02-09T15:05:13.685Z,55.74
2023-02-09T15:08:05.807Z,55.57
2023-02-09T15:10:57.449Z,55.98
2023-02-09T15:13:44.318Z,56.83
2023-02-09T15:16:31.748Z,55.97
2023-02-09T15:19:23.777Z,55.59
2023-02-09T15:22:13.659Z,55.12
2023-02-09T15:25:00.330Z,56.44
2023-02-09T15:27:52.705Z,56.04
2023-02-09T15:30:39.430Z,56.88
2023-02-09T15:33:27.106Z,57.38
2023-02-09T15:36:17.818Z,57.21
2023-02-09T15:39:05.069Z,57.66
2023-02-09T15:42:09.117Z,58.84
2023-02-09T15:45:14.489Z,60.54
2023-02-09T15:48:01.272Z,60.58
2023-02-09T15:50:50.772Z,60.17
2023-02-09T15:53:38.834Z,59.90
2023-02-09T15:56:25.391Z,59.85
2023-02-09T15:59:18.989Z,60.49
2023-02-09T16:02:12.841Z,61.59
2023-02-09T16:04:59.385Z,61.23
2023-02-09T16:07:46.248Z,62.49
2023-02-09T16:10:33.084Z,63.90
2023-02-09T16:13:21.212Z,62.53
2023-02-09T16:16:16.818Z,62.86
2023-02-09T16:19:05.620Z,62.53
2023-02-09T16:21:56.440Z,62.36
2023-02-09T16:24:46.269Z,63.19
2023-02-09T16:27:33.426Z,64.04
2023-02-09T16:30:22.827Z,63.20
2023-02-09T16:33:09.719Z,64.19
2023-02-09T16:36:00.004Z,63.16
2023-02-09T16:38:47.737Z,64.14
2023-02-09T16:41:50.758Z,63.60
2023-02-09T16:44:37.969Z,63.10
2023-02-09T16:47:27.968Z,63.38
2023-02-09T16:50:22.783Z,64.40
2023-02-09T16:53:22.338Z,64.35
2023-02-09T16:56:15.467Z,64.60
2023-02-09T16:59:02.208Z,64.31
2023-02-09T17:01:49.559Z,65.19
2023-02-09T17:04:37.873Z,65.57
2023-02-09T17:07:30.234Z,65.86
2023-02-09T17:10:20.402Z,65.17
2023-02-09T17:13:06.817Z,65.90
2023-02-09T17:15:55.351Z,65.83
2023-02-09T17:18:44.132Z,65.31
2023-02-09T17:21:32.606Z,66.70
2023-02-09T17:24:19.483Z,66.53
2023-02-09T17:27:08.117Z,66.26
2023-02-09T17:29:54.945Z,66.87
2023-02-09T17:32:41.718Z,67.58
2023-02-09T17:35:58.047Z,68.08
2023-02-09T17:38:37.772Z,67.81
2023-02-09T17:41:33.454Z,67.11
2023-02-09T17:44:43.751Z,67.81
2023-02-09T17:47:31.994Z,68.48
2023-02-09T17:50:20.049Z,68.92
2023-02-09T17:53:15.667Z,68.77
2023-02-09T17:56:02.681Z,69.10
2023-02-09T17:58:49.387Z,68.20
2023-02-09T18:01:53.592Z,68.97
2023-02-09T18:04:56.051Z,68.74
2023-02-09T18:07:45.611Z,68.43
2023-02-09T18:10:37.439Z,68.40
2023-02-09T18:13:25.891Z,68.75
2023-02-09T18:16:15.061Z,69.59
2023-02-09T18:19:02.842Z,69.17
2023-02-09T18:21:52.547Z,70.24
2023-02-09T18:24:39.269Z,70.65
2023-02-09T18:27:40.485Z,69.57
2023-02-09T18:30:31.931Z,69.38
2023-02-09T18:33:18.974Z,69.27
2023-02-09T18:36:08.094Z,68.94
2023-02-09T18:38:55.818Z,69.54
2023-02-09T18:41:43.798Z,69.22
2023-02-09T18:44:32.365Z,68.98
2023-02-09T18:47:18.775Z,68.85
2023-02-09T18:50:06.186Z,69.31
2023-02-09T18:52:57.114Z,70.20
2023-02-09T18:55:43.929Z,68.83
2023-02-09T18:58:35.482Z,68.94
2023-02-09T19:01:24.127Z,69.58
2023-02-09T19:04:10.950Z,69.22
2023-02-09T19:06:58.060Z,69.96
2023-02-09T19:09:46.988Z,70.28
2023-02-09T19:12:33.717Z,70.03
2023-02-09T19:15:26.530Z,69.34
2023-02-09T19:18:20.369Z,70.58
2023-02-09T19:21:17.270Z,70.72
2023-02-09T19:24:04.605Z,70.53
2023-02-09T19:27:02.096Z,70.84
2023-02-09T19:29:54.037Z,71.07
2023-02-09T19:32:48.696Z,70.96
2023-02-09T19:35:37.840Z,71.25
2023-02-09T19:38:25.732Z,72.00
2023-02-09T19:41:13.656Z,71.70
2023-02-09T19:44:01.911Z,72.01
2023-02-09T19:46:49.562Z,71.60
2023-02-09T19:49:35.988Z,71.75
2023-02-09T19:52:23.050Z,71.36
2023-02-09T19:55:11.220Z,71.36
2023-02-09T19:57:57.965Z,71.73
2023-02-09T20:00:46.054Z,71.61
2023-02-09T20:03:32.802Z,71.63
2023-02-09T20:06:19.780Z,72.11
2023-02-09T20:09:06.639Z,73.08
2023-02-09T20:11:53.357Z,72.96
2023-02-09T20:14:40.284Z,73.36
2023-02-09T20:17:30.217Z,73.66
2023-02-09T20:20:17.051Z,73.70
2023-02-09T20:23:03.705Z,74.52
2023-02-09T20:25:50.626Z,74.69
2023-02-09T20:28:37.413Z,74.84
2023-02-09T20:31:26.158Z,75.12
2023-02-09T20:34:19.037Z,75.31
2023-02-09T20:37:05.720Z,75.46
2023-02-09T20:40:08.783Z,75.16
2023-02-09T20:43:13.478Z,75.66
2023-02-09T20:46:25.111Z,75.92
2023-02-09T20:49:25.408Z,75.66
2023-02-09T20:52:15.228Z,75.43
2023-02-09T20:55:02.203Z,74.95
2023-02-09T20:57:49.285Z,74.89
2023-02-09T21:00:35.808Z,75.80
2023-02-09T21:03:22.757Z,76.12
2023-02-09T21:06:10.960Z,75.23
2023-02-09T21:08:57.717Z,76.26
2023-02-09T21:11:44.665Z,75.99
2023-02-09T21:14:41.879Z,76.03
2023-02-09T21:17:31.684Z,75.78
2023-02-09T21:20:19.165Z,76.33
2023-02-09T21:23:07.024Z,76.24
2023-02-09T21:26:01.716Z,76.20
2023-02-09T21:28:48.643Z,76.42
2023-02-09T21:31:36.383Z,76.75
2023-02-09T21:34:23.177Z,76.84
2023-02-09T21:37:13.018Z,76.59
2023-02-09T21:40:03.038Z,76.70
2023-02-09T21:42:50.947Z,77.15
2023-02-09T21:45:39.437Z,77.96
2023-02-09T21:48:26.363Z,77.84
2023-02-09T21:51:13.028Z,77.92
2023-02-09T21:53:59.855Z,77.28
2023-02-09T21:56:48.058Z,77.22
2023-02-09T21:59:34.766Z,77.02
2023-02-09T22:02:21.708Z,76.96
2023-02-09T22:05:09.886Z,76.92
2023-02-09T22:07:56.626Z,76.11
2023-02-09T22:10:43.321Z,75.56
2023-02-09T22:13:36.819Z,75.33
2023-02-09T22:16:34.794Z,76.04
2023-02-09T22:19:24.325Z,74.88
2023-02-09T22:22:11.589Z,74.17
2023-02-09T22:24:59.181Z,74.65
2023-02-09T22:27:46.061Z,73.44
2023-02-09T22:30:35.194Z,72.98
2023-02-09T22:33:21.910Z,72.63
2023-02-09T22:36:12.155Z,72.09
2023-02-09T22:38:58.796Z,71.84
2023-02-09T22:41:47.508Z,71.38
2023-02-09T22:44:34.266Z,72.23
2023-02-09T22:47:22.549Z,72.52
2023-02-09T22:50:09.773Z,71.64
2023-02-09T22:52:56.893Z,71.90
2023-02-09T22:55:46.433Z,72.01
2023-02-09T22:58:33.449Z,72.11
2023-02-09T23:01:20.368Z,71.69
2023-02-09T23:04:08.433Z,71.26
2023-02-09T23:06:55.197Z,71.05
2023-02-09T23:09:42.211Z,71.10
2023-02-09T23:12:28.974Z,71.55
2023-02-09T23:15:16.009Z,71.52
2023-02-09T23:18:02.803Z,71.69
2023-02-09T23:20:50.924Z,72.05
2023-02-09T23:23:37.939Z,73.57
2023-02-09T23:26:25.416Z,73.47
2023-02-09T23:29:14.610Z,73.31
2023-02-09T23:32:01.137Z,74.05
2023-02-09T23:34:47.849Z,75.19
2023-02-09T23:37:38.222Z,76.37
2023-02-09T23:40:24.997Z,76.98
2023-02-09T23:43:11.549Z,76.48
2023-02-09T23:46:01.521Z,77.25
2023-02-09T23:48:48.867Z,76.68
2023-02-09T23:51:36.792Z,77.38
2023-02-09T23:54:24.872Z,77.78
2023-02-09T23:57:11.500Z,78.95
2023-02-09T23:59:58.405Z,78.88
